sensor_id;sensor_type;location;lat;lon;timestamp;P1;durP1;ratioP1;P2;durP2;ratioP2
9906;SDS011;4992;51.628;6.664;2022-12-07T00:01:26;15.50;;;13.87;;
9906;SDS011;4992;51.628;6.664;2022-12-07T00:03:54;15.40;;;13.70;;
9906;SDS011;4992;51.628;6.664;2022-12-07T00:06:29;16.77;;;13.93;;
9906;SDS011;4992;51.628;6.664;2022-12-07T00:09:07;17.37;;;14.23;;
9906;SDS011;4992;51.628;6.664;2022-12-07T00:11:35;16.73;;;14.23;;
9906;SDS011;4992;51.628;6.664;2022-12-07T00:14:02;15.90;;;14.20;;
9906;SDS011;4992;51.628;6.664;2022-12-07T00:16:30;18.97;;;15.10;;
9906;SDS011;4992;51.628;6.664;2022-12-07T00:18:57;18.10;;;14.93;;
9906;SDS011;4992;51.628;6.664;2022-12-07T00:21:26;16.70;;;14.83;;
9906;SDS011;4992;51.628;6.664;2022-12-07T00:23:54;19.57;;;15.23;;
9906;SDS011;4992;51.628;6.664;2022-12-07T00:26:27;16.83;;;15.07;;
9906;SDS011;4992;51.628;6.664;2022-12-07T00:28:59;18.10;;;15.03;;
9906;SDS011;4992;51.628;6.664;2022-12-07T00:31:27;22.13;;;16.70;;
9906;SDS011;4992;51.628;6.664;2022-12-07T00:34:03;17.43;;;15.33;;
9906;SDS011;4992;51.628;6.664;2022-12-07T00:36:32;21.33;;;16.23;;
9906;SDS011;4992;51.628;6.664;2022-12-07T00:38:58;22.93;;;15.33;;
9906;SDS011;4992;51.628;6.664;2022-12-07T00:41:25;19.20;;;15.33;;
9906;SDS011;4992;51.628;6.664;2022-12-07T00:43:52;17.03;;;15.23;;
9906;SDS011;4992;51.628;6.664;2022-12-07T00:46:18;17.30;;;14.43;;
9906;SDS011;4992;51.628;6.664;2022-12-07T00:48:45;18.77;;;16.43;;
9906;SDS011;4992;51.628;6.664;2022-12-07T00:51:12;19.87;;;16.10;;
9906;SDS011;4992;51.628;6.664;2022-12-07T00:53:39;19.43;;;15.67;;
9906;SDS011;4992;51.628;6.664;2022-12-07T00:56:06;17.80;;;15.43;;
9906;SDS011;4992;51.628;6.664;2022-12-07T00:58:32;16.43;;;14.73;;
9906;SDS011;4992;51.628;6.664;2022-12-07T01:01:02;19.53;;;15.80;;
9906;SDS011;4992;51.628;6.664;2022-12-07T01:03:29;18.07;;;15.03;;
9906;SDS011;4992;51.628;6.664;2022-12-07T01:05:55;18.53;;;15.50;;
9906;SDS011;4992;51.628;6.664;2022-12-07T01:08:21;18.60;;;15.70;;
9906;SDS011;4992;51.628;6.664;2022-12-07T01:10:47;18.90;;;15.17;;
9906;SDS011;4992;51.628;6.664;2022-12-07T01:13:13;17.90;;;14.20;;
9906;SDS011;4992;51.628;6.664;2022-12-07T01:15:42;17.83;;;15.73;;
9906;SDS011;4992;51.628;6.664;2022-12-07T01:18:08;19.07;;;16.40;;
9906;SDS011;4992;51.628;6.664;2022-12-07T01:20:34;20.53;;;16.70;;
9906;SDS011;4992;51.628;6.664;2022-12-07T01:23:00;18.63;;;16.67;;
9906;SDS011;4992;51.628;6.664;2022-12-07T01:25:25;20.40;;;16.37;;
9906;SDS011;4992;51.628;6.664;2022-12-07T01:27:51;19.00;;;16.17;;
9906;SDS011;4992;51.628;6.664;2022-12-07T01:30:16;20.23;;;16.33;;
9906;SDS011;4992;51.628;6.664;2022-12-07T01:32:42;19.87;;;16.27;;
9906;SDS011;4992;51.628;6.664;2022-12-07T01:35:07;20.50;;;15.67;;
9906;SDS011;4992;51.628;6.664;2022-12-07T01:37:34;18.00;;;16.10;;
9906;SDS011;4992;51.628;6.664;2022-12-07T01:40:04;18.80;;;16.07;;
9906;SDS011;4992;51.628;6.664;2022-12-07T01:42:32;20.37;;;15.13;;
9906;SDS011;4992;51.628;6.664;2022-12-07T01:48:03;16.73;;;14.93;;
9906;SDS011;4992;51.628;6.664;2022-12-07T01:50:30;17.47;;;14.83;;
9906;SDS011;4992;51.628;6.664;2022-12-07T01:52:58;20.67;;;15.27;;
9906;SDS011;4992;51.628;6.664;2022-12-07T01:55:27;18.07;;;15.00;;
9906;SDS011;4992;51.628;6.664;2022-12-07T01:57:53;17.87;;;14.23;;
9906;SDS011;4992;51.628;6.664;2022-12-07T02:00:20;16.07;;;14.47;;
9906;SDS011;4992;51.628;6.664;2022-12-07T02:02:47;19.00;;;14.47;;
9906;SDS011;4992;51.628;6.664;2022-12-07T02:05:13;17.60;;;14.07;;
9906;SDS011;4992;51.628;6.664;2022-12-07T02:07:39;16.03;;;14.33;;
9906;SDS011;4992;51.628;6.664;2022-12-07T02:10:12;17.07;;;13.63;;
9906;SDS011;4992;51.628;6.664;2022-12-07T02:12:49;17.23;;;13.37;;
9906;SDS011;4992;51.628;6.664;2022-12-07T02:15:20;15.17;;;13.57;;
9906;SDS011;4992;51.628;6.664;2022-12-07T02:18:05;15.13;;;13.00;;
9906;SDS011;4992;51.628;6.664;2022-12-07T02:21:03;15.53;;;13.07;;
9906;SDS011;4992;51.628;6.664;2022-12-07T02:23:59;15.10;;;12.77;;
9906;SDS011;4992;51.628;6.664;2022-12-07T02:26:49;17.80;;;13.60;;
9906;SDS011;4992;51.628;6.664;2022-12-07T02:32:23;15.77;;;14.03;;
9906;SDS011;4992;51.628;6.664;2022-12-07T02:34:51;16.43;;;14.40;;
9906;SDS011;4992;51.628;6.664;2022-12-07T02:40:08;18.57;;;14.87;;
9906;SDS011;4992;51.628;6.664;2022-12-07T02:42:45;18.90;;;14.47;;
9906;SDS011;4992;51.628;6.664;2022-12-07T02:45:17;16.83;;;14.73;;
9906;SDS011;4992;51.628;6.664;2022-12-07T02:47:47;17.07;;;14.70;;
9906;SDS011;4992;51.628;6.664;2022-12-07T02:50:17;18.80;;;14.97;;
9906;SDS011;4992;51.628;6.664;2022-12-07T02:52:45;19.47;;;15.50;;
9906;SDS011;4992;51.628;6.664;2022-12-07T02:55:10;20.07;;;15.73;;
9906;SDS011;4992;51.628;6.664;2022-12-07T02:57:51;19.70;;;15.37;;
9906;SDS011;4992;51.628;6.664;2022-12-07T03:00:41;18.80;;;15.57;;
9906;SDS011;4992;51.628;6.664;2022-12-07T03:03:24;20.77;;;17.03;;
9906;SDS011;4992;51.628;6.664;2022-12-07T03:05:56;21.17;;;16.77;;
9906;SDS011;4992;51.628;6.664;2022-12-07T03:11:09;19.03;;;15.80;;
9906;SDS011;4992;51.628;6.664;2022-12-07T03:17:00;19.83;;;15.77;;
9906;SDS011;4992;51.628;6.664;2022-12-07T03:19:23;18.57;;;14.73;;
9906;SDS011;4992;51.628;6.664;2022-12-07T03:22:00;18.20;;;15.07;;
9906;SDS011;4992;51.628;6.664;2022-12-07T03:27:09;21.17;;;15.40;;
9906;SDS011;4992;51.628;6.664;2022-12-07T03:29:55;17.63;;;14.53;;
9906;SDS011;4992;51.628;6.664;2022-12-07T03:32:39;16.23;;;14.30;;
9906;SDS011;4992;51.628;6.664;2022-12-07T03:37:49;19.53;;;16.00;;
9906;SDS011;4992;51.628;6.664;2022-12-07T03:42:51;20.97;;;16.90;;
9906;SDS011;4992;51.628;6.664;2022-12-07T03:45:19;24.63;;;16.77;;
9906;SDS011;4992;51.628;6.664;2022-12-07T03:48:02;20.07;;;16.93;;
9906;SDS011;4992;51.628;6.664;2022-12-07T03:54:06;19.93;;;16.50;;
9906;SDS011;4992;51.628;6.664;2022-12-07T03:56:49;23.03;;;16.37;;
9906;SDS011;4992;51.628;6.664;2022-12-07T03:59:16;22.80;;;16.07;;
9906;SDS011;4992;51.628;6.664;2022-12-07T04:01:43;23.23;;;15.60;;
9906;SDS011;4992;51.628;6.664;2022-12-07T04:04:10;17.70;;;15.80;;
9906;SDS011;4992;51.628;6.664;2022-12-07T04:06:36;17.37;;;14.13;;
9906;SDS011;4992;51.628;6.664;2022-12-07T04:09:01;24.67;;;16.20;;
9906;SDS011;4992;51.628;6.664;2022-12-07T04:11:27;18.10;;;15.80;;
9906;SDS011;4992;51.628;6.664;2022-12-07T04:13:53;17.37;;;15.00;;
9906;SDS011;4992;51.628;6.664;2022-12-07T04:16:37;18.57;;;15.30;;
9906;SDS011;4992;51.628;6.664;2022-12-07T04:19:03;18.80;;;15.10;;
9906;SDS011;4992;51.628;6.664;2022-12-07T04:21:28;17.67;;;14.27;;
9906;SDS011;4992;51.628;6.664;2022-12-07T04:23:54;18.77;;;14.00;;
9906;SDS011;4992;51.628;6.664;2022-12-07T04:26:19;22.37;;;13.50;;
9906;SDS011;4992;51.628;6.664;2022-12-07T04:28:44;15.63;;;12.80;;
9906;SDS011;4992;51.628;6.664;2022-12-07T04:31:10;17.70;;;14.57;;
9906;SDS011;4992;51.628;6.664;2022-12-07T04:33:35;17.47;;;13.20;;
9906;SDS011;4992;51.628;6.664;2022-12-07T04:36:01;17.83;;;13.37;;
9906;SDS011;4992;51.628;6.664;2022-12-07T04:38:27;16.80;;;14.13;;
9906;SDS011;4992;51.628;6.664;2022-12-07T04:40:52;20.60;;;14.20;;
9906;SDS011;4992;51.628;6.664;2022-12-07T04:43:18;17.27;;;13.97;;
9906;SDS011;4992;51.628;6.664;2022-12-07T04:45:47;19.07;;;14.87;;
9906;SDS011;4992;51.628;6.664;2022-12-07T04:48:13;22.57;;;16.63;;
9906;SDS011;4992;51.628;6.664;2022-12-07T04:50:38;23.33;;;16.13;;
9906;SDS011;4992;51.628;6.664;2022-12-07T04:53:04;20.77;;;16.47;;
9906;SDS011;4992;51.628;6.664;2022-12-07T04:55:29;19.77;;;15.27;;
9906;SDS011;4992;51.628;6.664;2022-12-07T04:57:55;23.27;;;15.63;;
9906;SDS011;4992;51.628;6.664;2022-12-07T05:00:20;19.93;;;15.37;;
9906;SDS011;4992;51.628;6.664;2022-12-07T05:02:46;22.73;;;16.00;;
9906;SDS011;4992;51.628;6.664;2022-12-07T05:05:11;21.43;;;15.90;;
9906;SDS011;4992;51.628;6.664;2022-12-07T05:07:37;24.60;;;15.93;;
9906;SDS011;4992;51.628;6.664;2022-12-07T05:10:02;19.90;;;15.63;;
9906;SDS011;4992;51.628;6.664;2022-12-07T05:12:28;20.67;;;15.13;;
9906;SDS011;4992;51.628;6.664;2022-12-07T05:14:54;24.80;;;16.10;;
9906;SDS011;4992;51.628;6.664;2022-12-07T05:17:19;23.87;;;15.47;;
9906;SDS011;4992;51.628;6.664;2022-12-07T05:19:45;28.57;;;16.83;;
9906;SDS011;4992;51.628;6.664;2022-12-07T05:22:10;20.83;;;15.63;;
9906;SDS011;4992;51.628;6.664;2022-12-07T05:24:36;22.77;;;15.87;;
9906;SDS011;4992;51.628;6.664;2022-12-07T05:27:01;22.63;;;15.37;;
9906;SDS011;4992;51.628;6.664;2022-12-07T05:29:27;23.37;;;15.77;;
9906;SDS011;4992;51.628;6.664;2022-12-07T05:31:52;23.90;;;15.40;;
9906;SDS011;4992;51.628;6.664;2022-12-07T05:34:18;19.40;;;15.33;;
9906;SDS011;4992;51.628;6.664;2022-12-07T05:36:43;21.30;;;13.70;;
9906;SDS011;4992;51.628;6.664;2022-12-07T05:39:09;20.30;;;15.03;;
9906;SDS011;4992;51.628;6.664;2022-12-07T05:41:35;21.77;;;14.80;;
9906;SDS011;4992;51.628;6.664;2022-12-07T05:44:19;20.90;;;15.37;;
9906;SDS011;4992;51.628;6.664;2022-12-07T05:46:45;21.87;;;15.10;;
9906;SDS011;4992;51.628;6.664;2022-12-07T05:49:10;20.60;;;14.63;;
9906;SDS011;4992;51.628;6.664;2022-12-07T05:51:36;19.93;;;14.73;;
9906;SDS011;4992;51.628;6.664;2022-12-07T05:54:01;21.47;;;16.00;;
9906;SDS011;4992;51.628;6.664;2022-12-07T05:56:27;19.63;;;14.70;;
9906;SDS011;4992;51.628;6.664;2022-12-07T05:58:53;20.37;;;14.67;;
9906;SDS011;4992;51.628;6.664;2022-12-07T06:01:37;21.83;;;14.60;;
9906;SDS011;4992;51.628;6.664;2022-12-07T06:04:03;22.97;;;15.30;;
9906;SDS011;4992;51.628;6.664;2022-12-07T06:06:28;18.93;;;14.10;;
9906;SDS011;4992;51.628;6.664;2022-12-07T06:08:54;19.37;;;14.90;;
9906;SDS011;4992;51.628;6.664;2022-12-07T06:11:19;20.33;;;14.27;;
9906;SDS011;4992;51.628;6.664;2022-12-07T06:14:03;21.23;;;14.47;;
9906;SDS011;4992;51.628;6.664;2022-12-07T06:16:29;21.30;;;13.63;;
9906;SDS011;4992;51.628;6.664;2022-12-07T06:18:54;16.53;;;13.37;;
9906;SDS011;4992;51.628;6.664;2022-12-07T06:21:20;16.93;;;13.13;;
9906;SDS011;4992;51.628;6.664;2022-12-07T06:23:45;16.27;;;12.60;;
9906;SDS011;4992;51.628;6.664;2022-12-07T06:26:12;15.63;;;12.13;;
9906;SDS011;4992;51.628;6.664;2022-12-07T06:28:38;14.50;;;11.33;;
9906;SDS011;4992;51.628;6.664;2022-12-07T06:31:04;12.83;;;10.70;;
9906;SDS011;4992;51.628;6.664;2022-12-07T06:33:30;16.13;;;10.70;;
9906;SDS011;4992;51.628;6.664;2022-12-07T06:35:55;17.63;;;11.30;;
9906;SDS011;4992;51.628;6.664;2022-12-07T06:38:21;17.47;;;11.73;;
9906;SDS011;4992;51.628;6.664;2022-12-07T06:40:46;13.53;;;10.80;;
9906;SDS011;4992;51.628;6.664;2022-12-07T06:43:13;13.73;;;10.87;;
9906;SDS011;4992;51.628;6.664;2022-12-07T06:45:38;16.07;;;11.90;;
9906;SDS011;4992;51.628;6.664;2022-12-07T06:48:05;15.30;;;11.30;;
9906;SDS011;4992;51.628;6.664;2022-12-07T06:50:30;14.23;;;11.30;;
9906;SDS011;4992;51.628;6.664;2022-12-07T06:52:56;17.47;;;11.70;;
9906;SDS011;4992;51.628;6.664;2022-12-07T06:55:21;14.27;;;11.77;;
9906;SDS011;4992;51.628;6.664;2022-12-07T06:57:47;13.73;;;11.33;;
9906;SDS011;4992;51.628;6.664;2022-12-07T07:00:12;19.20;;;13.17;;
9906;SDS011;4992;51.628;6.664;2022-12-07T07:02:38;17.20;;;12.87;;
9906;SDS011;4992;51.628;6.664;2022-12-07T07:05:04;15.70;;;12.27;;
9906;SDS011;4992;51.628;6.664;2022-12-07T07:07:30;14.30;;;11.93;;
9906;SDS011;4992;51.628;6.664;2022-12-07T07:09:55;17.43;;;12.37;;
9906;SDS011;4992;51.628;6.664;2022-12-07T07:12:21;15.30;;;11.90;;
9906;SDS011;4992;51.628;6.664;2022-12-07T07:14:46;19.20;;;12.77;;
9906;SDS011;4992;51.628;6.664;2022-12-07T07:17:12;17.40;;;12.90;;
9906;SDS011;4992;51.628;6.664;2022-12-07T07:19:37;21.57;;;13.27;;
9906;SDS011;4992;51.628;6.664;2022-12-07T07:22:03;16.30;;;12.40;;
9906;SDS011;4992;51.628;6.664;2022-12-07T07:24:28;16.97;;;13.27;;
9906;SDS011;4992;51.628;6.664;2022-12-07T07:26:54;19.43;;;13.33;;
9906;SDS011;4992;51.628;6.664;2022-12-07T07:29:20;21.47;;;13.37;;
9906;SDS011;4992;51.628;6.664;2022-12-07T07:31:46;19.03;;;13.20;;
9906;SDS011;4992;51.628;6.664;2022-12-07T07:34:11;23.07;;;13.87;;
9906;SDS011;4992;51.628;6.664;2022-12-07T07:36:37;17.33;;;12.87;;
9906;SDS011;4992;51.628;6.664;2022-12-07T07:39:03;20.33;;;13.10;;
9906;SDS011;4992;51.628;6.664;2022-12-07T07:41:29;22.47;;;13.17;;
9906;SDS011;4992;51.628;6.664;2022-12-07T07:43:55;17.50;;;13.63;;
9906;SDS011;4992;51.628;6.664;2022-12-07T07:46:21;20.77;;;13.07;;
9906;SDS011;4992;51.628;6.664;2022-12-07T07:48:46;24.73;;;13.17;;
9906;SDS011;4992;51.628;6.664;2022-12-07T07:51:12;16.50;;;11.63;;
9906;SDS011;4992;51.628;6.664;2022-12-07T07:53:37;23.00;;;13.73;;
9906;SDS011;4992;51.628;6.664;2022-12-07T07:56:03;18.70;;;12.50;;
9906;SDS011;4992;51.628;6.664;2022-12-07T07:58:28;16.33;;;11.33;;
9906;SDS011;4992;51.628;6.664;2022-12-07T08:00:54;18.00;;;11.67;;
9906;SDS011;4992;51.628;6.664;2022-12-07T08:03:19;13.97;;;11.43;;
9906;SDS011;4992;51.628;6.664;2022-12-07T08:05:45;19.50;;;11.13;;
9906;SDS011;4992;51.628;6.664;2022-12-07T08:08:10;20.93;;;11.50;;
9906;SDS011;4992;51.628;6.664;2022-12-07T08:10:36;19.63;;;11.60;;
9906;SDS011;4992;51.628;6.664;2022-12-07T08:13:02;15.87;;;11.60;;
9906;SDS011;4992;51.628;6.664;2022-12-07T08:15:39;19.63;;;12.03;;
9906;SDS011;4992;51.628;6.664;2022-12-07T08:18:05;17.13;;;10.83;;
9906;SDS011;4992;51.628;6.664;2022-12-07T08:20:31;13.77;;;10.57;;
9906;SDS011;4992;51.628;6.664;2022-12-07T08:22:58;16.50;;;10.33;;
9906;SDS011;4992;51.628;6.664;2022-12-07T08:25:23;14.87;;;10.00;;
9906;SDS011;4992;51.628;6.664;2022-12-07T08:27:50;14.70;;;9.73;;
9906;SDS011;4992;51.628;6.664;2022-12-07T08:30:16;13.97;;;9.83;;
9906;SDS011;4992;51.628;6.664;2022-12-07T08:32:43;13.87;;;10.20;;
9906;SDS011;4992;51.628;6.664;2022-12-07T08:35:10;14.53;;;9.10;;
9906;SDS011;4992;51.628;6.664;2022-12-07T08:37:35;15.00;;;10.40;;
9906;SDS011;4992;51.628;6.664;2022-12-07T08:40:01;15.13;;;10.93;;
9906;SDS011;4992;51.628;6.664;2022-12-07T08:42:28;13.87;;;10.53;;
9906;SDS011;4992;51.628;6.664;2022-12-07T08:45:02;17.70;;;10.67;;
9906;SDS011;4992;51.628;6.664;2022-12-07T08:47:31;15.90;;;10.87;;
9906;SDS011;4992;51.628;6.664;2022-12-07T08:49:58;21.63;;;12.17;;
9906;SDS011;4992;51.628;6.664;2022-12-07T08:52:28;19.73;;;11.50;;
9906;SDS011;4992;51.628;6.664;2022-12-07T08:54:57;18.70;;;11.20;;
9906;SDS011;4992;51.628;6.664;2022-12-07T08:57:24;20.47;;;11.43;;
9906;SDS011;4992;51.628;6.664;2022-12-07T08:59:51;19.73;;;10.33;;
9906;SDS011;4992;51.628;6.664;2022-12-07T09:02:17;23.70;;;10.20;;
9906;SDS011;4992;51.628;6.664;2022-12-07T09:04:42;17.87;;;10.43;;
9906;SDS011;4992;51.628;6.664;2022-12-07T09:07:08;17.40;;;11.33;;
9906;SDS011;4992;51.628;6.664;2022-12-07T09:09:34;14.50;;;9.60;;
9906;SDS011;4992;51.628;6.664;2022-12-07T09:11:59;17.00;;;11.00;;
9906;SDS011;4992;51.628;6.664;2022-12-07T09:14:25;15.03;;;9.70;;
9906;SDS011;4992;51.628;6.664;2022-12-07T09:16:50;12.70;;;8.53;;
9906;SDS011;4992;51.628;6.664;2022-12-07T09:19:16;14.70;;;9.33;;
9906;SDS011;4992;51.628;6.664;2022-12-07T09:21:41;15.27;;;8.93;;
9906;SDS011;4992;51.628;6.664;2022-12-07T09:24:07;16.93;;;8.77;;
9906;SDS011;4992;51.628;6.664;2022-12-07T09:26:34;10.77;;;8.07;;
9906;SDS011;4992;51.628;6.664;2022-12-07T09:29:00;14.00;;;8.80;;
9906;SDS011;4992;51.628;6.664;2022-12-07T09:31:26;12.73;;;7.67;;
9906;SDS011;4992;51.628;6.664;2022-12-07T09:33:53;13.03;;;7.40;;
9906;SDS011;4992;51.628;6.664;2022-12-07T09:36:22;12.93;;;7.87;;
9906;SDS011;4992;51.628;6.664;2022-12-07T09:38:49;11.77;;;7.33;;
9906;SDS011;4992;51.628;6.664;2022-12-07T09:41:14;10.60;;;6.83;;
9906;SDS011;4992;51.628;6.664;2022-12-07T09:43:40;13.13;;;7.37;;
9906;SDS011;4992;51.628;6.664;2022-12-07T09:46:08;10.20;;;6.57;;
9906;SDS011;4992;51.628;6.664;2022-12-07T09:48:41;13.83;;;8.20;;
9906;SDS011;4992;51.628;6.664;2022-12-07T09:51:18;13.13;;;7.97;;
9906;SDS011;4992;51.628;6.664;2022-12-07T09:53:46;11.37;;;7.43;;
9906;SDS011;4992;51.628;6.664;2022-12-07T09:56:15;12.40;;;7.50;;
9906;SDS011;4992;51.628;6.664;2022-12-07T09:58:43;11.27;;;7.33;;
9906;SDS011;4992;51.628;6.664;2022-12-07T10:03:36;15.90;;;7.03;;
9906;SDS011;4992;51.628;6.664;2022-12-07T10:06:04;10.67;;;7.20;;
9906;SDS011;4992;51.628;6.664;2022-12-07T10:08:30;8.93;;;6.30;;
9906;SDS011;4992;51.628;6.664;2022-12-07T10:10:56;9.00;;;5.83;;
9906;SDS011;4992;51.628;6.664;2022-12-07T10:13:34;11.23;;;5.80;;
9906;SDS011;4992;51.628;6.664;2022-12-07T10:16:00;11.33;;;5.87;;
9906;SDS011;4992;51.628;6.664;2022-12-07T10:23:43;7.63;;;4.47;;
9906;SDS011;4992;51.628;6.664;2022-12-07T10:26:29;8.43;;;4.63;;
9906;SDS011;4992;51.628;6.664;2022-12-07T10:29:01;6.87;;;4.57;;
9906;SDS011;4992;51.628;6.664;2022-12-07T10:31:52;11.83;;;4.07;;
9906;SDS011;4992;51.628;6.664;2022-12-07T10:34:26;6.20;;;3.67;;
9906;SDS011;4992;51.628;6.664;2022-12-07T10:39:54;14.30;;;7.83;;
9906;SDS011;4992;51.628;6.664;2022-12-07T10:42:25;7.13;;;3.10;;
9906;SDS011;4992;51.628;6.664;2022-12-07T10:47:44;5.77;;;2.77;;
9906;SDS011;4992;51.628;6.664;2022-12-07T10:59:20;13.53;;;5.40;;
9906;SDS011;4992;51.628;6.664;2022-12-07T11:01:54;8.87;;;2.90;;
9906;SDS011;4992;51.628;6.664;2022-12-07T11:04:35;6.37;;;2.77;;
9906;SDS011;4992;51.628;6.664;2022-12-07T11:07:20;4.63;;;2.33;;
9906;SDS011;4992;51.628;6.664;2022-12-07T11:10:01;4.53;;;1.97;;
9906;SDS011;4992;51.628;6.664;2022-12-07T11:35:11;5.07;;;1.93;;
9906;SDS011;4992;51.628;6.664;2022-12-07T11:38:12;3.17;;;1.60;;
9906;SDS011;4992;51.628;6.664;2022-12-07T11:40:42;6.30;;;1.57;;
9906;SDS011;4992;51.628;6.664;2022-12-07T11:43:15;5.13;;;1.90;;
9906;SDS011;4992;51.628;6.664;2022-12-07T11:45:56;4.77;;;1.70;;
9906;SDS011;4992;51.628;6.664;2022-12-07T11:48:33;5.30;;;1.70;;
9906;SDS011;4992;51.628;6.664;2022-12-07T11:51:03;7.70;;;1.67;;
9906;SDS011;4992;51.628;6.664;2022-12-07T11:53:42;10.93;;;2.27;;
9906;SDS011;4992;51.628;6.664;2022-12-07T11:56:15;6.23;;;2.27;;
9906;SDS011;4992;51.628;6.664;2022-12-07T12:02:07;3.37;;;1.87;;
9906;SDS011;4992;51.628;6.664;2022-12-07T12:04:46;4.70;;;1.90;;
9906;SDS011;4992;51.628;6.664;2022-12-07T12:07:24;6.27;;;2.03;;
9906;SDS011;4992;51.628;6.664;2022-12-07T12:09:59;5.27;;;2.20;;
9906;SDS011;4992;51.628;6.664;2022-12-07T12:12:59;5.97;;;2.07;;
9906;SDS011;4992;51.628;6.664;2022-12-07T12:21:29;5.03;;;2.23;;
9906;SDS011;4992;51.628;6.664;2022-12-07T12:23:58;5.23;;;2.20;;
9906;SDS011;4992;51.628;6.664;2022-12-07T12:26:37;8.00;;;2.37;;
9906;SDS011;4992;51.628;6.664;2022-12-07T12:31:46;7.17;;;2.67;;
9906;SDS011;4992;51.628;6.664;2022-12-07T12:34:32;6.23;;;2.50;;
9906;SDS011;4992;51.628;6.664;2022-12-07T12:37:03;4.07;;;2.37;;
9906;SDS011;4992;51.628;6.664;2022-12-07T12:42:46;7.50;;;2.50;;
9906;SDS011;4992;51.628;6.664;2022-12-07T12:45:28;4.33;;;1.93;;
9906;SDS011;4992;51.628;6.664;2022-12-07T12:51:35;2.20;;;1.60;;
9906;SDS011;4992;51.628;6.664;2022-12-07T12:53:37;4.70;;;1.70;;
9906;SDS011;4992;51.628;6.664;2022-12-07T12:58:35;3.37;;;2.00;;
9906;SDS011;4992;51.628;6.664;2022-12-07T13:04:00;7.07;;;2.10;;
9906;SDS011;4992;51.628;6.664;2022-12-07T13:08:53;3.70;;;1.93;;
9906;SDS011;4992;51.628;6.664;2022-12-07T13:11:34;6.63;;;2.03;;
9906;SDS011;4992;51.628;6.664;2022-12-07T13:17:44;4.43;;;2.33;;
9906;SDS011;4992;51.628;6.664;2022-12-07T13:20:03;2.00;;;1.80;;
9906;SDS011;4992;51.628;6.664;2022-12-07T13:25:19;5.93;;;1.97;;
9906;SDS011;4992;51.628;6.664;2022-12-07T13:28:00;5.53;;;1.80;;
9906;SDS011;4992;51.628;6.664;2022-12-07T13:30:43;6.20;;;2.00;;
9906;SDS011;4992;51.628;6.664;2022-12-07T13:33:23;8.87;;;2.27;;
9906;SDS011;4992;51.628;6.664;2022-12-07T13:35:53;3.40;;;2.23;;
9906;SDS011;4992;51.628;6.664;2022-12-07T13:38:34;5.33;;;2.20;;
9906;SDS011;4992;51.628;6.664;2022-12-07T13:43:29;6.53;;;2.13;;
9906;SDS011;4992;51.628;6.664;2022-12-07T13:45:58;4.50;;;1.77;;
9906;SDS011;4992;51.628;6.664;2022-12-07T13:48:37;4.90;;;1.80;;
9906;SDS011;4992;51.628;6.664;2022-12-07T13:51:18;4.43;;;1.53;;
9906;SDS011;4992;51.628;6.664;2022-12-07T13:53:53;4.07;;;1.77;;
9906;SDS011;4992;51.628;6.664;2022-12-07T13:56:21;8.43;;;1.80;;
9906;SDS011;4992;51.628;6.664;2022-12-07T13:58:50;4.97;;;2.03;;
9906;SDS011;4992;51.628;6.664;2022-12-07T14:01:16;8.70;;;1.80;;
9906;SDS011;4992;51.628;6.664;2022-12-07T14:03:43;8.50;;;1.90;;
9906;SDS011;4992;51.628;6.664;2022-12-07T14:06:25;10.03;;;1.97;;
9906;SDS011;4992;51.628;6.664;2022-12-07T14:09:07;8.33;;;1.87;;
9906;SDS011;4992;51.628;6.664;2022-12-07T14:11:34;8.93;;;2.37;;
9906;SDS011;4992;51.628;6.664;2022-12-07T14:14:02;6.00;;;1.90;;
9906;SDS011;4992;51.628;6.664;2022-12-07T14:16:34;4.57;;;1.50;;
9906;SDS011;4992;51.628;6.664;2022-12-07T14:19:05;4.20;;;1.70;;
9906;SDS011;4992;51.628;6.664;2022-12-07T14:22:05;6.77;;;1.90;;
9906;SDS011;4992;51.628;6.664;2022-12-07T14:24:42;6.03;;;2.03;;
9906;SDS011;4992;51.628;6.664;2022-12-07T14:27:18;4.57;;;1.73;;
9906;SDS011;4992;51.628;6.664;2022-12-07T14:29:46;6.07;;;2.30;;
9906;SDS011;4992;51.628;6.664;2022-12-07T14:32:17;5.27;;;2.03;;
9906;SDS011;4992;51.628;6.664;2022-12-07T14:34:58;11.63;;;2.50;;
9906;SDS011;4992;51.628;6.664;2022-12-07T14:37:26;4.20;;;2.47;;
9906;SDS011;4992;51.628;6.664;2022-12-07T14:39:53;7.73;;;2.73;;
9906;SDS011;4992;51.628;6.664;2022-12-07T14:42:18;10.23;;;3.43;;
9906;SDS011;4992;51.628;6.664;2022-12-07T14:44:44;9.20;;;4.00;;
9906;SDS011;4992;51.628;6.664;2022-12-07T14:47:10;5.63;;;3.60;;
9906;SDS011;4992;51.628;6.664;2022-12-07T14:49:36;5.23;;;3.60;;
9906;SDS011;4992;51.628;6.664;2022-12-07T14:52:02;10.93;;;4.13;;
9906;SDS011;4992;51.628;6.664;2022-12-07T14:54:29;10.67;;;3.90;;
9906;SDS011;4992;51.628;6.664;2022-12-07T14:56:57;6.60;;;3.43;;
9906;SDS011;4992;51.628;6.664;2022-12-07T14:59:22;6.10;;;3.17;;
9906;SDS011;4992;51.628;6.664;2022-12-07T15:01:48;6.70;;;3.23;;
9906;SDS011;4992;51.628;6.664;2022-12-07T15:04:14;7.07;;;3.33;;
9906;SDS011;4992;51.628;6.664;2022-12-07T15:06:39;6.03;;;2.53;;
9906;SDS011;4992;51.628;6.664;2022-12-07T15:09:08;13.13;;;3.50;;
9906;SDS011;4992;51.628;6.664;2022-12-07T15:11:35;10.87;;;3.10;;
9906;SDS011;4992;51.628;6.664;2022-12-07T15:14:01;7.70;;;3.10;;
9906;SDS011;4992;51.628;6.664;2022-12-07T15:16:40;8.47;;;3.03;;
9906;SDS011;4992;51.628;6.664;2022-12-07T15:19:16;7.77;;;3.43;;
9906;SDS011;4992;51.628;6.664;2022-12-07T15:21:51;6.53;;;3.13;;
9906;SDS011;4992;51.628;6.664;2022-12-07T15:24:17;6.97;;;3.00;;
9906;SDS011;4992;51.628;6.664;2022-12-07T15:26:43;6.83;;;3.20;;
9906;SDS011;4992;51.628;6.664;2022-12-07T15:29:09;5.60;;;2.83;;
9906;SDS011;4992;51.628;6.664;2022-12-07T15:31:35;5.97;;;2.83;;
9906;SDS011;4992;51.628;6.664;2022-12-07T15:34:01;14.40;;;2.97;;
9906;SDS011;4992;51.628;6.664;2022-12-07T15:36:27;9.23;;;3.13;;
9906;SDS011;4992;51.628;6.664;2022-12-07T15:38:55;8.27;;;3.10;;
9906;SDS011;4992;51.628;6.664;2022-12-07T15:41:21;6.80;;;3.00;;
9906;SDS011;4992;51.628;6.664;2022-12-07T15:43:46;6.73;;;3.37;;
9906;SDS011;4992;51.628;6.664;2022-12-07T15:46:31;10.77;;;3.20;;
9906;SDS011;4992;51.628;6.664;2022-12-07T15:48:58;7.17;;;3.50;;
9906;SDS011;4992;51.628;6.664;2022-12-07T15:51:25;6.20;;;3.60;;
9906;SDS011;4992;51.628;6.664;2022-12-07T15:53:50;8.47;;;4.27;;
9906;SDS011;4992;51.628;6.664;2022-12-07T15:56:16;10.47;;;4.53;;
9906;SDS011;4992;51.628;6.664;2022-12-07T15:58:42;6.47;;;4.63;;
9906;SDS011;4992;51.628;6.664;2022-12-07T16:01:15;11.23;;;4.73;;
9906;SDS011;4992;51.628;6.664;2022-12-07T16:03:43;6.47;;;4.37;;
9906;SDS011;4992;51.628;6.664;2022-12-07T16:06:09;8.47;;;3.70;;
9906;SDS011;4992;51.628;6.664;2022-12-07T16:08:35;8.60;;;3.57;;
9906;SDS011;4992;51.628;6.664;2022-12-07T16:11:04;8.23;;;3.73;;
9906;SDS011;4992;51.628;6.664;2022-12-07T16:13:31;10.10;;;3.90;;
9906;SDS011;4992;51.628;6.664;2022-12-07T16:15:57;6.90;;;3.67;;
9906;SDS011;4992;51.628;6.664;2022-12-07T16:18:22;7.50;;;3.73;;
9906;SDS011;4992;51.628;6.664;2022-12-07T16:20:48;9.87;;;3.87;;
9906;SDS011;4992;51.628;6.664;2022-12-07T16:23:14;8.53;;;4.73;;
9906;SDS011;4992;51.628;6.664;2022-12-07T16:25:40;6.20;;;4.20;;
9906;SDS011;4992;51.628;6.664;2022-12-07T16:28:05;6.80;;;3.90;;
9906;SDS011;4992;51.628;6.664;2022-12-07T16:30:32;6.03;;;3.97;;
9906;SDS011;4992;51.628;6.664;2022-12-07T16:32:58;7.97;;;4.00;;
9906;SDS011;4992;51.628;6.664;2022-12-07T16:35:24;11.17;;;4.07;;
9906;SDS011;4992;51.628;6.664;2022-12-07T16:37:49;8.33;;;3.47;;
9906;SDS011;4992;51.628;6.664;2022-12-07T16:40:15;11.13;;;4.00;;
9906;SDS011;4992;51.628;6.664;2022-12-07T16:42:40;6.10;;;3.23;;
9906;SDS011;4992;51.628;6.664;2022-12-07T16:45:06;8.43;;;3.10;;
9906;SDS011;4992;51.628;6.664;2022-12-07T16:47:31;5.90;;;2.63;;
9906;SDS011;4992;51.628;6.664;2022-12-07T16:49:57;6.07;;;2.83;;
9906;SDS011;4992;51.628;6.664;2022-12-07T16:52:22;6.50;;;3.20;;
9906;SDS011;4992;51.628;6.664;2022-12-07T16:54:48;5.50;;;3.30;;
9906;SDS011;4992;51.628;6.664;2022-12-07T16:57:15;10.67;;;5.57;;